sensor_id;sensor_type;location;lat;lon;timestamp;temperature;humidity
70170;DHT22;57543;45.442;9.212;2023-02-08T00:00:49;5.40;52.65
70170;DHT22;57543;45.442;9.212;2023-02-08T00:03:53;5.61;52.45
70170;DHT22;57543;45.442;9.212;2023-02-08T00:06:57;5.68;52.15
70170;DHT22;57543;45.442;9.212;2023-02-08T00:10:01;5.62;51.87
70170;DHT22;57543;45.442;9.212;2023-02-08T00:13:07;5.54;52.48
70170;DHT22;57543;45.442;9.212;2023-02-08T00:16:12;5.58;52.37
70170;DHT22;57543;45.442;9.212;2023-02-08T00:19:15;5.58;52.23
70170;DHT22;57543;45.442;9.212;2023-02-08T00:22:19;5.59;52.24
70170;DHT22;57543;45.442;9.212;2023-02-08T00:25:23;5.64;52.00
70170;DHT22;57543;45.442;9.212;2023-02-08T00:28:26;5.66;52.05
70170;DHT22;57543;45.442;9.212;2023-02-08T00:31:30;5.68;51.95
70170;DHT22;57543;45.442;9.212;2023-02-08T00:34:34;5.68;51.66
70170;DHT22;57543;45.442;9.212;2023-02-08T00:37:37;5.30;52.38
70170;DHT22;57543;45.442;9.212;2023-02-08T00:40:40;5.16;52.87
70170;DHT22;57543;45.442;9.212;2023-02-08T00:43:44;5.05;53.31
70170;DHT22;57543;45.442;9.212;2023-02-08T00:46:48;4.71;54.19
70170;DHT22;57543;45.442;9.212;2023-02-08T00:49:51;4.48;54.79
70170;DHT22;57543;45.442;9.212;2023-02-08T00:52:57;4.21;55.59
70170;DHT22;57543;45.442;9.212;2023-02-08T00:56:02;4.21;55.66
70170;DHT22;57543;45.442;9.212;2023-02-08T00:59:05;4.21;55.55
70170;DHT22;57543;45.442;9.212;2023-02-08T01:02:11;4.46;54.89
70170;DHT22;57543;45.442;9.212;2023-02-08T01:05:15;4.43;55.17
70170;DHT22;57543;45.442;9.212;2023-02-08T01:08:19;4.23;55.74
70170;DHT22;57543;45.442;9.212;2023-02-08T01:11:25;4.17;56.00
70170;DHT22;57543;45.442;9.212;2023-02-08T01:14:29;4.26;55.64
70170;DHT22;57543;45.442;9.212;2023-02-08T01:17:33;4.19;55.84
70170;DHT22;57543;45.442;9.212;2023-02-08T01:20:36;4.13;56.33
70170;DHT22;57543;45.442;9.212;2023-02-08T01:23:41;4.13;56.14
70170;DHT22;57543;45.442;9.212;2023-02-08T01:26:45;4.17;55.85
70170;DHT22;57543;45.442;9.212;2023-02-08T01:29:49;4.17;55.99
70170;DHT22;57543;45.442;9.212;2023-02-08T01:32:53;4.24;55.75
70170;DHT22;57543;45.442;9.212;2023-02-08T01:35:56;4.20;55.83
70170;DHT22;57543;45.442;9.212;2023-02-08T01:39:00;4.19;55.95
70170;DHT22;57543;45.442;9.212;2023-02-08T01:42:04;4.10;56.15
70170;DHT22;57543;45.442;9.212;2023-02-08T01:45:25;4.10;56.12
70170;DHT22;57543;45.442;9.212;2023-02-08T01:48:34;4.06;56.24
70170;DHT22;57543;45.442;9.212;2023-02-08T01:51:44;4.07;56.31
70170;DHT22;57543;45.442;9.212;2023-02-08T01:54:59;4.05;56.36
70170;DHT22;57543;45.442;9.212;2023-02-08T01:58:07;3.95;56.90
70170;DHT22;57543;45.442;9.212;2023-02-08T02:01:12;3.92;56.79
70170;DHT22;57543;45.442;9.212;2023-02-08T02:04:16;4.02;56.64
70170;DHT22;57543;45.442;9.212;2023-02-08T02:07:21;3.96;56.83
70170;DHT22;57543;45.442;9.212;2023-02-08T02:10:34;4.01;56.67
70170;DHT22;57543;45.442;9.212;2023-02-08T02:13:38;4.09;56.71
70170;DHT22;57543;45.442;9.212;2023-02-08T02:16:42;4.14;56.20
70170;DHT22;57543;45.442;9.212;2023-02-08T02:37:01;3.89;57.53
70170;DHT22;57543;45.442;9.212;2023-02-08T02:43:51;3.92;57.51
70170;DHT22;57543;45.442;9.212;2023-02-08T02:47:03;3.89;57.72
70170;DHT22;57543;45.442;9.212;2023-02-08T02:50:11;3.92;57.51
70170;DHT22;57543;45.442;9.212;2023-02-08T02:56:32;4.02;57.23
70170;DHT22;57543;45.442;9.212;2023-02-08T02:59:40;4.05;57.73
70170;DHT22;57543;45.442;9.212;2023-02-08T03:02:45;3.89;57.45
70170;DHT22;57543;45.442;9.212;2023-02-08T03:05:50;3.95;57.50
70170;DHT22;57543;45.442;9.212;2023-02-08T03:09:07;3.96;57.29
70170;DHT22;57543;45.442;9.212;2023-02-08T03:12:42;3.96;57.40
70170;DHT22;57543;45.442;9.212;2023-02-08T03:16:15;3.81;58.06
70170;DHT22;57543;45.442;9.212;2023-02-08T03:19:38;3.81;57.64
70170;DHT22;57543;45.442;9.212;2023-02-08T03:23:01;3.77;57.71
70170;DHT22;57543;45.442;9.212;2023-02-08T03:26:22;3.82;57.49
70170;DHT22;57543;45.442;9.212;2023-02-08T03:33:13;3.88;57.48
70170;DHT22;57543;45.442;9.212;2023-02-08T03:39:48;4.10;56.99
70170;DHT22;57543;45.442;9.212;2023-02-08T03:42:57;4.06;56.86
70170;DHT22;57543;45.442;9.212;2023-02-08T03:46:10;4.20;56.85
70170;DHT22;57543;45.442;9.212;2023-02-08T03:49:19;4.01;57.58
70170;DHT22;57543;45.442;9.212;2023-02-08T03:52:25;3.95;57.72
70170;DHT22;57543;45.442;9.212;2023-02-08T03:55:32;3.96;57.59
70170;DHT22;57543;45.442;9.212;2023-02-08T03:58:59;3.95;57.38
70170;DHT22;57543;45.442;9.212;2023-02-08T04:02:06;3.96;57.40
70170;DHT22;57543;45.442;9.212;2023-02-08T04:05:12;3.91;58.01
70170;DHT22;57543;45.442;9.212;2023-02-08T04:08:16;3.86;58.12
70170;DHT22;57543;45.442;9.212;2023-02-08T04:11:20;3.91;57.75
70170;DHT22;57543;45.442;9.212;2023-02-08T04:14:24;3.91;57.63
70170;DHT22;57543;45.442;9.212;2023-02-08T04:17:27;3.95;57.45
70170;DHT22;57543;45.442;9.212;2023-02-08T04:20:31;3.81;57.89
70170;DHT22;57543;45.442;9.212;2023-02-08T04:23:35;3.82;58.18
70170;DHT22;57543;45.442;9.212;2023-02-08T04:26:39;3.82;58.19
70170;DHT22;57543;45.442;9.212;2023-02-08T04:29:43;3.77;58.38
70170;DHT22;57543;45.442;9.212;2023-02-08T04:32:46;3.85;58.21
70170;DHT22;57543;45.442;9.212;2023-02-08T04:35:50;3.75;58.31
70170;DHT22;57543;45.442;9.212;2023-02-08T04:38:54;3.84;58.25
70170;DHT22;57543;45.442;9.212;2023-02-08T04:41:57;3.84;58.05
70170;DHT22;57543;45.442;9.212;2023-02-08T04:45:01;3.86;58.14
70170;DHT22;57543;45.442;9.212;2023-02-08T04:48:05;3.96;58.53
70170;DHT22;57543;45.442;9.212;2023-02-08T04:51:09;3.67;60.12
70170;DHT22;57543;45.442;9.212;2023-02-08T04:54:13;3.64;59.86
70170;DHT22;57543;45.442;9.212;2023-02-08T04:57:16;3.40;60.54
70170;DHT22;57543;45.442;9.212;2023-02-08T05:00:19;3.44;60.38
70170;DHT22;57543;45.442;9.212;2023-02-08T05:03:23;3.33;60.83
70170;DHT22;57543;45.442;9.212;2023-02-08T05:06:27;3.18;61.00
70170;DHT22;57543;45.442;9.212;2023-02-08T05:09:30;3.23;60.96
70170;DHT22;57543;45.442;9.212;2023-02-08T05:12:33;3.41;61.16
70170;DHT22;57543;45.442;9.212;2023-02-08T05:15:36;3.36;61.58
70170;DHT22;57543;45.442;9.212;2023-02-08T05:18:40;3.30;61.78
70170;DHT22;57543;45.442;9.212;2023-02-08T05:21:44;3.26;61.44
70170;DHT22;57543;45.442;9.212;2023-02-08T05:24:47;3.12;61.85
70170;DHT22;57543;45.442;9.212;2023-02-08T05:27:51;3.15;62.12
70170;DHT22;57543;45.442;9.212;2023-02-08T05:30:55;3.19;61.84
70170;DHT22;57543;45.442;9.212;2023-02-08T05:33:58;3.20;61.46
70170;DHT22;57543;45.442;9.212;2023-02-08T05:37:02;3.29;61.64
70170;DHT22;57543;45.442;9.212;2023-02-08T05:40:06;3.23;61.81
70170;DHT22;57543;45.442;9.212;2023-02-08T05:43:10;3.13;62.03
70170;DHT22;57543;45.442;9.212;2023-02-08T05:46:13;3.27;61.60
70170;DHT22;57543;45.442;9.212;2023-02-08T05:49:17;3.15;61.93
70170;DHT22;57543;45.442;9.212;2023-02-08T05:52:21;3.15;61.73
70170;DHT22;57543;45.442;9.212;2023-02-08T05:55:24;3.02;62.33
70170;DHT22;57543;45.442;9.212;2023-02-08T05:58:30;2.83;63.03
70170;DHT22;57543;45.442;9.212;2023-02-08T06:01:34;2.80;63.01
70170;DHT22;57543;45.442;9.212;2023-02-08T06:04:38;2.75;63.23
70170;DHT22;57543;45.442;9.212;2023-02-08T06:07:41;2.61;63.55
70170;DHT22;57543;45.442;9.212;2023-02-08T06:10:47;2.61;63.80
70170;DHT22;57543;45.442;9.212;2023-02-08T06:13:51;2.60;63.89
70170;DHT22;57543;45.442;9.212;2023-02-08T06:16:55;2.56;64.20
70170;DHT22;57543;45.442;9.212;2023-02-08T06:19:58;2.58;64.12
70170;DHT22;57543;45.442;9.212;2023-02-08T06:23:02;2.56;64.10
70170;DHT22;57543;45.442;9.212;2023-02-08T06:26:06;2.56;64.08
70170;DHT22;57543;45.442;9.212;2023-02-08T06:29:09;2.56;64.66
70170;DHT22;57543;45.442;9.212;2023-02-08T06:32:13;2.57;64.63
70170;DHT22;57543;45.442;9.212;2023-02-08T06:35:17;2.61;64.29
70170;DHT22;57543;45.442;9.212;2023-02-08T06:38:21;2.70;64.04
70170;DHT22;57543;45.442;9.212;2023-02-08T06:41:25;2.75;63.90
70170;DHT22;57543;45.442;9.212;2023-02-08T06:44:29;2.80;63.81
70170;DHT22;57543;45.442;9.212;2023-02-08T06:47:32;2.73;64.40
70170;DHT22;57543;45.442;9.212;2023-02-08T06:50:36;2.68;64.70
70170;DHT22;57543;45.442;9.212;2023-02-08T06:53:40;2.64;64.78
70170;DHT22;57543;45.442;9.212;2023-02-08T06:56:44;2.75;64.62
70170;DHT22;57543;45.442;9.212;2023-02-08T06:59:48;2.96;64.42
70170;DHT22;57543;45.442;9.212;2023-02-08T07:02:51;3.11;63.92
70170;DHT22;57543;45.442;9.212;2023-02-08T07:05:55;3.11;63.92
70170;DHT22;57543;45.442;9.212;2023-02-08T07:08:59;3.37;63.36
70170;DHT22;57543;45.442;9.212;2023-02-08T07:12:03;3.50;62.65
70170;DHT22;57543;45.442;9.212;2023-02-08T07:15:08;3.43;62.91
70170;DHT22;57543;45.442;9.212;2023-02-08T07:18:15;3.47;62.98
70170;DHT22;57543;45.442;9.212;2023-02-08T07:21:19;3.70;62.52
70170;DHT22;57543;45.442;9.212;2023-02-08T07:24:23;3.84;61.89
70170;DHT22;57543;45.442;9.212;2023-02-08T07:27:27;3.81;61.60
70170;DHT22;57543;45.442;9.212;2023-02-08T07:30:31;3.77;61.66
70170;DHT22;57543;45.442;9.212;2023-02-08T07:33:35;3.79;61.80
70170;DHT22;57543;45.442;9.212;2023-02-08T07:36:39;3.81;61.83
70170;DHT22;57543;45.442;9.212;2023-02-08T07:39:42;3.73;62.08
70170;DHT22;57543;45.442;9.212;2023-02-08T07:42:46;3.98;61.64
70170;DHT22;57543;45.442;9.212;2023-02-08T07:46:16;4.38;60.74
70170;DHT22;57543;45.442;9.212;2023-02-08T07:49:20;5.28;58.62
70170;DHT22;57543;45.442;9.212;2023-02-08T07:52:24;6.89;54.22
70170;DHT22;57543;45.442;9.212;2023-02-08T07:55:28;8.61;48.81
70170;DHT22;57543;45.442;9.212;2023-02-08T07:58:32;10.83;43.75
70170;DHT22;57543;45.442;9.212;2023-02-08T08:01:35;13.03;38.86
70170;DHT22;57543;45.442;9.212;2023-02-08T08:04:39;15.20;34.55
70170;DHT22;57543;45.442;9.212;2023-02-08T08:07:43;16.77;31.95
70170;DHT22;57543;45.442;9.212;2023-02-08T08:10:47;18.04;29.90
70170;DHT22;57543;45.442;9.212;2023-02-08T08:13:51;19.18;28.12
70170;DHT22;57543;45.442;9.212;2023-02-08T08:16:55;20.03;26.67
70170;DHT22;57543;45.442;9.212;2023-02-08T08:19:59;20.83;25.17
70170;DHT22;57543;45.442;9.212;2023-02-08T08:23:03;21.24;24.71
70170;DHT22;57543;45.442;9.212;2023-02-08T08:26:18;21.93;23.70
70170;DHT22;57543;45.442;9.212;2023-02-08T08:29:22;21.69;22.14
70170;DHT22;57543;45.442;9.212;2023-02-08T08:32:26;21.89;20.41
70170;DHT22;57543;45.442;9.212;2023-02-08T08:35:30;22.24;20.87
70170;DHT22;57543;45.442;9.212;2023-02-08T08:38:33;22.86;20.09
70170;DHT22;57543;45.442;9.212;2023-02-08T08:41:37;23.06;19.08
70170;DHT22;57543;45.442;9.212;2023-02-08T08:44:40;23.62;19.32
70170;DHT22;57543;45.442;9.212;2023-02-08T08:47:44;23.90;18.85
70170;DHT22;57543;45.442;9.212;2023-02-08T08:50:48;24.39;18.55
70170;DHT22;57543;45.442;9.212;2023-02-08T08:53:52;24.56;18.90
70170;DHT22;57543;45.442;9.212;2023-02-08T08:56:55;24.73;18.80
70170;DHT22;57543;45.442;9.212;2023-02-08T08:59:59;24.65;17.61
70170;DHT22;57543;45.442;9.212;2023-02-08T09:03:03;24.11;17.40
70170;DHT22;57543;45.442;9.212;2023-02-08T09:06:06;23.08;17.23
70170;DHT22;57543;45.442;9.212;2023-02-08T09:09:10;21.24;17.70
70170;DHT22;57543;45.442;9.212;2023-02-08T09:12:14;21.63;17.53
70170;DHT22;57543;45.442;9.212;2023-02-08T09:15:18;21.55;18.20
70170;DHT22;57543;45.442;9.212;2023-02-08T09:18:22;21.38;18.80
70170;DHT22;57543;45.442;9.212;2023-02-08T09:21:25;20.79;20.12
70170;DHT22;57543;45.442;9.212;2023-02-08T09:24:29;18.59;22.23
70170;DHT22;57543;45.442;9.212;2023-02-08T09:27:33;17.42;24.48
70170;DHT22;57543;45.442;9.212;2023-02-08T09:30:38;17.91;24.34
70170;DHT22;57543;45.442;9.212;2023-02-08T09:33:41;16.79;24.06
70170;DHT22;57543;45.442;9.212;2023-02-08T09:36:45;16.55;25.30
70170;DHT22;57543;45.442;9.212;2023-02-08T09:39:48;15.63;26.18
70170;DHT22;57543;45.442;9.212;2023-02-08T09:43:12;15.60;26.22
70170;DHT22;57543;45.442;9.212;2023-02-08T09:46:22;14.49;26.78
70170;DHT22;57543;45.442;9.212;2023-02-08T09:49:30;14.31;25.60
70170;DHT22;57543;45.442;9.212;2023-02-08T09:52:50;13.63;26.55
70170;DHT22;57543;45.442;9.212;2023-02-08T09:55:56;13.24;26.46
70170;DHT22;57543;45.442;9.212;2023-02-08T09:59:02;12.91;27.81
70170;DHT22;57543;45.442;9.212;2023-02-08T10:02:25;12.53;27.41
70170;DHT22;57543;45.442;9.212;2023-02-08T10:05:30;12.17;28.62
70170;DHT22;57543;45.442;9.212;2023-02-08T10:08:34;12.38;28.72
70170;DHT22;57543;45.442;9.212;2023-02-08T10:11:50;12.44;29.36
70170;DHT22;57543;45.442;9.212;2023-02-08T10:15:11;12.52;29.12
70170;DHT22;57543;45.442;9.212;2023-02-08T10:21:50;12.07;30.76
70170;DHT22;57543;45.442;9.212;2023-02-08T10:25:29;11.72;29.78
70170;DHT22;57543;45.442;9.212;2023-02-08T10:35:13;11.79;29.94
70170;DHT22;57543;45.442;9.212;2023-02-08T10:38:22;11.54;30.41
70170;DHT22;57543;45.442;9.212;2023-02-08T10:41:33;11.24;30.91
70170;DHT22;57543;45.442;9.212;2023-02-08T10:48:16;11.24;30.20
70170;DHT22;57543;45.442;9.212;2023-02-08T10:51:22;11.03;29.49
70170;DHT22;57543;45.442;9.212;2023-02-08T10:54:26;10.80;30.78
70170;DHT22;57543;45.442;9.212;2023-02-08T10:57:33;11.34;30.84
70170;DHT22;57543;45.442;9.212;2023-02-08T11:00:38;11.65;29.86
70170;DHT22;57543;45.442;9.212;2023-02-08T11:04:00;11.54;30.31
70170;DHT22;57543;45.442;9.212;2023-02-08T11:07:18;12.01;29.54
70170;DHT22;57543;45.442;9.212;2023-02-08T11:10:24;12.32;29.54
70170;DHT22;57543;45.442;9.212;2023-02-08T11:13:34;12.39;30.72
70170;DHT22;57543;45.442;9.212;2023-02-08T11:16:38;12.42;29.42
70170;DHT22;57543;45.442;9.212;2023-02-08T11:19:43;11.98;28.70
70170;DHT22;57543;45.442;9.212;2023-02-08T11:22:48;12.07;28.78
70170;DHT22;57543;45.442;9.212;2023-02-08T11:25:53;12.59;28.40
70170;DHT22;57543;45.442;9.212;2023-02-08T11:29:10;12.73;28.61
70170;DHT22;57543;45.442;9.212;2023-02-08T11:32:18;12.38;28.15
70170;DHT22;57543;45.442;9.212;2023-02-08T11:35:24;12.84;28.26
70170;DHT22;57543;45.442;9.212;2023-02-08T11:38:28;13.45;27.31
70170;DHT22;57543;45.442;9.212;2023-02-08T11:41:33;14.41;26.00
70170;DHT22;57543;45.442;9.212;2023-02-08T11:44:41;14.91;25.23
70170;DHT22;57543;45.442;9.212;2023-02-08T11:47:46;16.66;24.19
70170;DHT22;57543;45.442;9.212;2023-02-08T11:50:56;17.87;22.82
70170;DHT22;57543;45.442;9.212;2023-02-08T11:54:02;18.25;21.38
70170;DHT22;57543;45.442;9.212;2023-02-08T11:57:21;19.81;20.87
70170;DHT22;57543;45.442;9.212;2023-02-08T12:00:34;18.15;21.03
70170;DHT22;57543;45.442;9.212;2023-02-08T12:03:40;18.49;21.84
70170;DHT22;57543;45.442;9.212;2023-02-08T12:23:37;13.94;25.01
70170;DHT22;57543;45.442;9.212;2023-02-08T12:30:27;13.69;25.86
70170;DHT22;57543;45.442;9.212;2023-02-08T12:50:30;12.87;27.49
70170;DHT22;57543;45.442;9.212;2023-02-08T12:53:57;13.24;27.90
70170;DHT22;57543;45.442;9.212;2023-02-08T12:57:03;13.55;28.03
70170;DHT22;57543;45.442;9.212;2023-02-08T13:06:51;13.28;28.32
70170;DHT22;57543;45.442;9.212;2023-02-08T13:10:02;13.41;28.23
70170;DHT22;57543;45.442;9.212;2023-02-08T13:16:23;12.63;29.58
70170;DHT22;57543;45.442;9.212;2023-02-08T13:19:32;12.70;28.68
70170;DHT22;57543;45.442;9.212;2023-02-08T13:22:41;12.67;29.38
70170;DHT22;57543;45.442;9.212;2023-02-08T13:25:47;12.97;28.90
70170;DHT22;57543;45.442;9.212;2023-02-08T13:28:53;13.11;29.74
70170;DHT22;57543;45.442;9.212;2023-02-08T13:32:28;13.32;28.65
70170;DHT22;57543;45.442;9.212;2023-02-08T13:35:34;13.17;29.41
70170;DHT22;57543;45.442;9.212;2023-02-08T13:38:38;13.29;28.66
70170;DHT22;57543;45.442;9.212;2023-02-08T13:41:49;13.29;28.98
70170;DHT22;57543;45.442;9.212;2023-02-08T13:44:55;13.14;29.26
70170;DHT22;57543;45.442;9.212;2023-02-08T13:48:11;13.08;29.16
70170;DHT22;57543;45.442;9.212;2023-02-08T13:54:39;12.60;29.86
70170;DHT22;57543;45.442;9.212;2023-02-08T13:57:55;13.06;28.26
70170;DHT22;57543;45.442;9.212;2023-02-08T14:01:01;13.38;28.83
70170;DHT22;57543;45.442;9.212;2023-02-08T14:07:22;13.69;28.42
70170;DHT22;57543;45.442;9.212;2023-02-08T14:10:34;13.24;29.37
70170;DHT22;57543;45.442;9.212;2023-02-08T14:13:52;12.11;29.37
70170;DHT22;57543;45.442;9.212;2023-02-08T14:20:07;12.86;29.58
70170;DHT22;57543;45.442;9.212;2023-02-08T14:23:26;13.39;30.15
70170;DHT22;57543;45.442;9.212;2023-02-08T14:26:30;12.97;28.92
70170;DHT22;57543;45.442;9.212;2023-02-08T14:29:34;12.60;30.22
70170;DHT22;57543;45.442;9.212;2023-02-08T14:32:39;12.42;30.06
70170;DHT22;57543;45.442;9.212;2023-02-08T14:35:58;11.93;30.94
70170;DHT22;57543;45.442;9.212;2023-02-08T14:42:09;11.72;30.92
70170;DHT22;57543;45.442;9.212;2023-02-08T14:45:27;12.11;30.48
70170;DHT22;57543;45.442;9.212;2023-02-08T14:48:34;11.65;30.85
70170;DHT22;57543;45.442;9.212;2023-02-08T14:52:02;11.29;31.30
70170;DHT22;57543;45.442;9.212;2023-02-08T14:55:22;11.84;30.66
70170;DHT22;57543;45.442;9.212;2023-02-08T14:58:38;11.76;31.42
70170;DHT22;57543;45.442;9.212;2023-02-08T15:04:48;11.58;31.55
70170;DHT22;57543;45.442;9.212;2023-02-08T15:10:57;11.38;31.57
70170;DHT22;57543;45.442;9.212;2023-02-08T15:14:03;11.29;31.91
70170;DHT22;57543;45.442;9.212;2023-02-08T15:17:25;11.21;32.38
70170;DHT22;57543;45.442;9.212;2023-02-08T15:20:34;11.48;31.73
70170;DHT22;57543;45.442;9.212;2023-02-08T15:23:38;11.34;32.48
70170;DHT22;57543;45.442;9.212;2023-02-08T15:26:50;10.86;32.84
70170;DHT22;57543;45.442;9.212;2023-02-08T15:29:55;11.22;32.57
70170;DHT22;57543;45.442;9.212;2023-02-08T15:33:00;11.28;32.29
70170;DHT22;57543;45.442;9.212;2023-02-08T15:36:07;11.11;32.31
70170;DHT22;57543;45.442;9.212;2023-02-08T15:39:33;10.70;33.49
70170;DHT22;57543;45.442;9.212;2023-02-08T15:42:42;10.39;33.79
70170;DHT22;57543;45.442;9.212;2023-02-08T15:45:55;9.66;34.67
70170;DHT22;57543;45.442;9.212;2023-02-08T15:48:59;9.77;34.93
70170;DHT22;57543;45.442;9.212;2023-02-08T15:52:04;10.28;34.47
70170;DHT22;57543;45.442;9.212;2023-02-08T15:55:14;9.51;35.39
70170;DHT22;57543;45.442;9.212;2023-02-08T15:58:29;9.65;35.70
70170;DHT22;57543;45.442;9.212;2023-02-08T16:01:34;9.63;35.21
70170;DHT22;57543;45.442;9.212;2023-02-08T16:04:45;9.46;34.96
70170;DHT22;57543;45.442;9.212;2023-02-08T16:07:49;9.06;34.52
70170;DHT22;57543;45.442;9.212;2023-02-08T16:11:19;8.63;35.70
70170;DHT22;57543;45.442;9.212;2023-02-08T16:14:24;8.34;36.58
70170;DHT22;57543;45.442;9.212;2023-02-08T16:17:43;8.23;36.89
70170;DHT22;57543;45.442;9.212;2023-02-08T16:20:55;7.99;36.78
70170;DHT22;57543;45.442;9.212;2023-02-08T16:24:06;8.00;36.66
70170;DHT22;57543;45.442;9.212;2023-02-08T16:27:26;7.72;37.20
70170;DHT22;57543;45.442;9.212;2023-02-08T16:30:32;7.78;37.14
70170;DHT22;57543;45.442;9.212;2023-02-08T16:33:36;7.87;37.37
70170;DHT22;57543;45.442;9.212;2023-02-08T16:36:48;8.06;36.83
70170;DHT22;57543;45.442;9.212;2023-02-08T16:43:17;7.78;37.63
70170;DHT22;57543;45.442;9.212;2023-02-08T16:46:23;7.51;38.24
70170;DHT22;57543;45.442;9.212;2023-02-08T16:49:28;7.32;38.47
70170;DHT22;57543;45.442;9.212;2023-02-08T16:52:33;7.54;38.73
70170;DHT22;57543;45.442;9.212;2023-02-08T16:55:36;7.48;38.25
70170;DHT22;57543;45.442;9.212;2023-02-08T16:58:41;7.43;38.48
70170;DHT22;57543;45.442;9.212;2023-02-08T17:01:45;7.40;38.45
70170;DHT22;57543;45.442;9.212;2023-02-08T17:04:50;7.55;38.63
70170;DHT22;57543;45.442;9.212;2023-02-08T17:07:57;7.35;38.61
70170;DHT22;57543;45.442;9.212;2023-02-08T17:11:01;7.38;38.95
70170;DHT22;57543;45.442;9.212;2023-02-08T17:14:06;7.38;38.84
70170;DHT22;57543;45.442;9.212;2023-02-08T17:17:10;7.35;38.93
70170;DHT22;57543;45.442;9.212;2023-02-08T17:20:25;7.28;38.87
70170;DHT22;57543;45.442;9.212;2023-02-08T17:23:30;7.20;39.22
70170;DHT22;57543;45.442;9.212;2023-02-08T17:26:42;7.23;38.40
70170;DHT22;57543;45.442;9.212;2023-02-08T17:29:46;7.03;37.31
70170;DHT22;57543;45.442;9.212;2023-02-08T17:32:53;7.11;37.40
70170;DHT22;57543;45.442;9.212;2023-02-08T17:36:00;6.90;37.50
70170;DHT22;57543;45.442;9.212;2023-02-08T17:39:04;6.81;37.29
70170;DHT22;57543;45.442;9.212;2023-02-08T17:42:07;6.71;37.51
70170;DHT22;57543;45.442;9.212;2023-02-08T17:45:13;6.72;38.33
70170;DHT22;57543;45.442;9.212;2023-02-08T17:48:16;6.68;38.34
70170;DHT22;57543;45.442;9.212;2023-02-08T17:51:22;6.69;37.50
70170;DHT22;57543;45.442;9.212;2023-02-08T17:54:26;6.42;37.87
70170;DHT22;57543;45.442;9.212;2023-02-08T17:57:34;6.37;38.27
70170;DHT22;57543;45.442;9.212;2023-02-08T18:00:39;6.48;38.17
70170;DHT22;57543;45.442;9.212;2023-02-08T18:03:43;6.46;38.38
70170;DHT22;57543;45.442;9.212;2023-02-08T18:06:47;6.51;38.28
70170;DHT22;57543;45.442;9.212;2023-02-08T18:09:50;6.62;37.82
70170;DHT22;57543;45.442;9.212;2023-02-08T18:12:54;6.28;38.57
70170;DHT22;57543;45.442;9.212;2023-02-08T18:16:05;6.30;38.54
70170;DHT22;57543;45.442;9.212;2023-02-08T18:19:09;6.28;38.92
70170;DHT22;57543;45.442;9.212;2023-02-08T18:22:13;5.99;39.17
70170;DHT22;57543;45.442;9.212;2023-02-08T18:25:17;6.05;39.53
70170;DHT22;57543;45.442;9.212;2023-02-08T18:28:21;5.98;39.88
70170;DHT22;57543;45.442;9.212;2023-02-08T18:31:25;6.05;39.76
70170;DHT22;57543;45.442;9.212;2023-02-08T18:34:28;6.00;40.04
70170;DHT22;57543;45.442;9.212;2023-02-08T18:37:32;5.88;40.46
70170;DHT22;57543;45.442;9.212;2023-02-08T18:40:35;6.00;40.25
70170;DHT22;57543;45.442;9.212;2023-02-08T18:43:39;5.88;40.91
70170;DHT22;57543;45.442;9.212;2023-02-08T18:46:43;5.68;41.22
70170;DHT22;57543;45.442;9.212;2023-02-08T18:49:56;5.89;42.20
70170;DHT22;57543;45.442;9.212;2023-02-08T18:52:59;5.89;42.28
70170;DHT22;57543;45.442;9.212;2023-02-08T18:56:05;5.81;41.95
70170;DHT22;57543;45.442;9.212;2023-02-08T18:59:10;5.64;43.10
70170;DHT22;57543;45.442;9.212;2023-02-08T19:02:19;5.48;42.16
70170;DHT22;57543;45.442;9.212;2023-02-08T19:05:23;5.56;42.18
70170;DHT22;57543;45.442;9.212;2023-02-08T19:08:27;5.66;42.19
70170;DHT22;57543;45.442;9.212;2023-02-08T19:11:34;5.73;41.81
70170;DHT22;57543;45.442;9.212;2023-02-08T19:14:38;5.88;41.90
70170;DHT22;57543;45.442;9.212;2023-02-08T19:17:41;5.79;41.85
70170;DHT22;57543;45.442;9.212;2023-02-08T19:20:46;5.76;41.93
70170;DHT22;57543;45.442;9.212;2023-02-08T19:23:50;5.79;42.13
70170;DHT22;57543;45.442;9.212;2023-02-08T19:26:54;5.95;41.95
70170;DHT22;57543;45.442;9.212;2023-02-08T19:29:58;5.98;41.98
70170;DHT22;57543;45.442;9.212;2023-02-08T19:33:02;6.00;42.28
70170;DHT22;57543;45.442;9.212;2023-02-08T19:36:11;5.64;42.79
70170;DHT22;57543;45.442;9.212;2023-02-08T19:39:17;5.85;42.42
70170;DHT22;57543;45.442;9.212;2023-02-08T19:42:20;5.65;43.09
70170;DHT22;57543;45.442;9.212;2023-02-08T19:45:24;5.66;43.26
70170;DHT22;57543;45.442;9.212;2023-02-08T19:48:27;5.69;42.98
70170;DHT22;57543;45.442;9.212;2023-02-08T19:51:32;5.71;43.28
70170;DHT22;57543;45.442;9.212;2023-02-08T19:54:36;5.71;43.27
70170;DHT22;57543;45.442;9.212;2023-02-08T19:57:40;5.75;43.36
70170;DHT22;57543;45.442;9.212;2023-02-08T20:00:44;5.86;43.37
70170;DHT22;57543;45.442;9.212;2023-02-08T20:03:49;5.68;43.56
70170;DHT22;57543;45.442;9.212;2023-02-08T20:06:53;5.58;43.99
70170;DHT22;57543;45.442;9.212;2023-02-08T20:09:56;5.76;43.83
70170;DHT22;57543;45.442;9.212;2023-02-08T20:12:59;5.56;43.70
70170;DHT22;57543;45.442;9.212;2023-02-08T20:16:03;5.52;43.80
70170;DHT22;57543;45.442;9.212;2023-02-08T20:19:06;5.62;44.16
70170;DHT22;57543;45.442;9.212;2023-02-08T20:22:13;5.33;44.10
70170;DHT22;57543;45.442;9.212;2023-02-08T20:25:17;5.31;44.51
70170;DHT22;57543;45.442;9.212;2023-02-08T20:28:20;5.22;44.03
70170;DHT22;57543;45.442;9.212;2023-02-08T20:31:30;5.30;44.13
70170;DHT22;57543;45.442;9.212;2023-02-08T20:34:34;5.05;43.90
70170;DHT22;57543;45.442;9.212;2023-02-08T20:37:38;5.30;43.90
70170;DHT22;57543;45.442;9.212;2023-02-08T20:40:42;5.45;43.33
70170;DHT22;57543;45.442;9.212;2023-02-08T20:43:47;5.26;42.98
70170;DHT22;57543;45.442;9.212;2023-02-08T20:46:51;5.43;43.30
70170;DHT22;57543;45.442;9.212;2023-02-08T20:49:57;5.44;42.16
70170;DHT22;57543;45.442;9.212;2023-02-08T20:53:01;5.37;42.70
70170;DHT22;57543;45.442;9.212;2023-02-08T20:56:06;5.40;42.58
70170;DHT22;57543;45.442;9.212;2023-02-08T20:59:10;5.10;42.94
70170;DHT22;57543;45.442;9.212;2023-02-08T21:02:18;5.23;42.93
70170;DHT22;57543;45.442;9.212;2023-02-08T21:05:22;5.15;42.90
70170;DHT22;57543;45.442;9.212;2023-02-08T21:08:26;5.22;43.04
70170;DHT22;57543;45.442;9.212;2023-02-08T21:11:31;5.54;42.72
70170;DHT22;57543;45.442;9.212;2023-02-08T21:14:35;5.43;42.15
70170;DHT22;57543;45.442;9.212;2023-02-08T21:17:38;5.47;42.48
70170;DHT22;57543;45.442;9.212;2023-02-08T21:20:42;5.12;42.62
70170;DHT22;57543;45.442;9.212;2023-02-08T21:23:46;5.09;42.29
70170;DHT22;57543;45.442;9.212;2023-02-08T21:26:52;4.97;42.73
70170;DHT22;57543;45.442;9.212;2023-02-08T21:29:56;4.91;42.17
70170;DHT22;57543;45.442;9.212;2023-02-08T21:33:02;4.86;41.79
70170;DHT22;57543;45.442;9.212;2023-02-08T21:36:07;4.72;41.69
70170;DHT22;57543;45.442;9.212;2023-02-08T21:39:14;4.41;42.24
70170;DHT22;57543;45.442;9.212;2023-02-08T21:42:18;4.44;42.33
70170;DHT22;57543;45.442;9.212;2023-02-08T21:45:22;4.57;41.95